createdAt,value
2019-01-26T00:01:03.340Z,39.45
2019-01-26T00:02:09.887Z,34.40
2019-01-26T00:03:14.840Z,34.45
2019-01-26T00:04:20.046Z,41.68
2019-01-26T00:05:25.314Z,31.85
2019-01-26T00:06:30.209Z,36.30
2019-01-26T00:07:35.688Z,32.70
2019-01-26T00:08:40.867Z,35.65
2019-01-26T00:09:46.336Z,35.92
2019-01-26T00:10:51.303Z,39.35
2019-01-26T00:11:56.409Z,40.52
2019-01-26T00:13:01.753Z,38.13
2019-01-26T00:14:06.789Z,35.50
2019-01-26T00:15:12.097Z,33.60
2019-01-26T00:16:21.053Z,36.48
2019-01-26T00:17:24.000Z,32.93
2019-01-26T00:18:31.002Z,35.50
2019-01-26T00:19:37.732Z,38.58
2019-01-26T00:20:42.936Z,38.92
2019-01-26T00:21:47.917Z,40.38
2019-01-26T00:22:52.824Z,36.65
2019-01-26T00:23:58.114Z,35.10
2019-01-26T00:25:03.861Z,36.00
2019-01-26T00:26:08.880Z,39.58
2019-01-26T00:27:14.596Z,40.12
2019-01-26T00:28:19.568Z,39.80
2019-01-26T00:29:24.615Z,38.98
2019-01-26T00:30:30.211Z,39.63
2019-01-26T00:31:35.501Z,45.90
2019-01-26T00:32:40.501Z,38.75
2019-01-26T00:33:45.669Z,41.48
2019-01-26T00:34:50.602Z,38.08
2019-01-26T00:35:55.685Z,43.28
2019-01-26T00:37:00.588Z,45.58
2019-01-26T00:38:05.880Z,45.40
2019-01-26T00:39:10.940Z,44.77
2019-01-26T00:40:16.191Z,44.38
2019-01-26T00:41:22.541Z,40.12
2019-01-26T00:42:27.803Z,45.45
2019-01-26T00:43:32.775Z,39.35
2019-01-26T00:44:37.671Z,38.25
2019-01-26T00:45:42.932Z,42.30
2019-01-26T00:46:47.837Z,41.28
2019-01-26T00:47:52.752Z,44.45
2019-01-26T00:48:57.997Z,40.38
2019-01-26T00:50:02.985Z,43.30
2019-01-26T00:51:07.970Z,51.90
2019-01-26T00:52:12.876Z,41.00
2019-01-26T00:53:18.794Z,42.50
2019-01-26T00:54:23.982Z,52.93
2019-01-26T00:55:28.928Z,44.85
2019-01-26T00:56:34.018Z,46.30
2019-01-26T00:57:38.987Z,46.75
2019-01-26T00:58:43.983Z,48.50
2019-01-26T00:59:49.124Z,52.80
2019-01-26T01:00:54.307Z,41.88
2019-01-26T01:01:59.294Z,50.15
2019-01-26T01:03:04.324Z,49.70
2019-01-26T01:04:09.501Z,50.92
2019-01-26T01:05:14.805Z,51.68
2019-01-26T01:06:19.788Z,48.83
2019-01-26T01:07:26.069Z,43.73
2019-01-26T01:08:31.051Z,52.80
2019-01-26T01:09:36.380Z,49.10
2019-01-26T01:10:41.427Z,54.95
2019-01-26T01:11:46.686Z,43.02
2019-01-26T01:12:51.661Z,46.05
2019-01-26T01:13:56.593Z,52.27
2019-01-26T01:15:01.797Z,53.13
2019-01-26T01:16:07.131Z,48.10
2019-01-26T01:17:12.097Z,56.05
2019-01-26T01:18:17.074Z,48.10
2019-01-26T01:19:22.313Z,50.30
2019-01-26T01:20:27.286Z,54.77
2019-01-26T01:21:32.852Z,48.87
2019-01-26T01:22:38.251Z,57.53
2019-01-26T01:23:43.710Z,58.30
2019-01-26T01:24:49.078Z,54.80
2019-01-26T01:25:54.015Z,52.73
2019-01-26T01:26:59.130Z,60.40
2019-01-26T01:28:04.590Z,55.52
2019-01-26T01:29:09.497Z,54.98
2019-01-26T01:30:17.862Z,59.25
2019-01-26T01:31:22.755Z,52.17
2019-01-26T01:32:27.897Z,61.15
2019-01-26T01:33:32.869Z,57.17
2019-01-26T01:34:37.781Z,55.70
2019-01-26T01:35:42.665Z,68.00
2019-01-26T01:36:47.935Z,57.17
2019-01-26T01:37:52.907Z,48.30
2019-01-26T01:38:57.921Z,63.25
2019-01-26T01:40:03.591Z,58.30
2019-01-26T01:41:08.553Z,53.70
2019-01-26T01:42:13.574Z,64.32
2019-01-26T01:43:18.629Z,53.33
2019-01-26T01:44:23.922Z,57.25
2019-01-26T01:45:29.332Z,67.75
2019-01-26T01:46:34.309Z,50.30
2019-01-26T01:47:39.367Z,63.58
2019-01-26T01:48:44.209Z,55.05
2019-01-26T01:49:49.459Z,59.45
2019-01-26T01:50:54.450Z,50.28
2019-01-26T01:51:59.514Z,56.10
2019-01-26T01:53:04.837Z,59.70
2019-01-26T01:54:09.812Z,66.05
2019-01-26T01:55:15.794Z,61.40
2019-01-26T01:56:20.902Z,50.60
2019-01-26T01:57:25.784Z,58.90
2019-01-26T01:58:31.035Z,65.35
2019-01-26T01:59:36.337Z,54.27
2019-01-26T02:00:41.256Z,62.95
2019-01-26T02:01:46.205Z,57.93
2019-01-26T02:02:51.168Z,54.90
2019-01-26T02:03:56.434Z,65.78
2019-01-26T02:05:01.662Z,57.80
2019-01-26T02:06:06.920Z,61.10
2019-01-26T02:07:11.939Z,69.65
2019-01-26T02:08:16.853Z,58.17
2019-01-26T02:09:21.939Z,68.97
2019-01-26T02:10:28.747Z,61.15
2019-01-26T02:11:33.662Z,67.53
2019-01-26T02:12:39.025Z,75.45
2019-01-26T02:13:43.989Z,63.63
2019-01-26T02:14:48.907Z,63.70
2019-01-26T02:15:53.950Z,72.27
2019-01-26T02:16:58.882Z,61.68
2019-01-26T02:18:04.711Z,59.50
2019-01-26T02:19:09.630Z,64.05
2019-01-26T02:20:17.846Z,63.52
2019-01-26T02:21:23.071Z,62.20
2019-01-26T02:22:27.977Z,70.17
2019-01-26T02:23:33.128Z,65.87
2019-01-26T02:24:38.305Z,70.35
2019-01-26T02:25:43.235Z,57.83
2019-01-26T02:26:48.861Z,55.08
2019-01-26T02:27:54.144Z,66.70
2019-01-26T02:28:59.028Z,57.35
2019-01-26T02:30:05.131Z,56.55
2019-01-26T02:31:10.435Z,61.77
2019-01-26T02:32:15.454Z,63.15
2019-01-26T02:33:20.364Z,61.45
2019-01-26T02:34:25.270Z,56.50
2019-01-26T02:35:30.664Z,81.28
2019-01-26T02:36:35.682Z,64.27
2019-01-26T02:37:40.836Z,63.40
2019-01-26T02:38:45.743Z,59.18
2019-01-26T02:39:50.634Z,63.17
2019-01-26T02:40:55.531Z,61.15
2019-01-26T02:42:00.800Z,61.05
2019-01-26T02:43:05.788Z,65.87
2019-01-26T02:44:11.160Z,66.65
2019-01-26T02:45:16.346Z,72.35
2019-01-26T02:46:21.271Z,68.35
2019-01-26T02:47:26.188Z,72.03
2019-01-26T02:48:31.085Z,67.67
2019-01-26T02:49:35.988Z,62.58
2019-01-26T02:50:41.028Z,78.25
2019-01-26T02:51:46.227Z,65.42
2019-01-26T02:52:51.149Z,72.08
2019-01-26T02:53:56.079Z,74.17
2019-01-26T02:55:00.992Z,71.55
2019-01-26T02:56:05.967Z,73.05
2019-01-26T02:57:11.800Z,71.70
2019-01-26T02:58:16.789Z,75.15
2019-01-26T02:59:21.771Z,66.37
2019-01-26T03:00:29.688Z,73.40
2019-01-26T03:01:34.719Z,71.95
2019-01-26T03:02:40.042Z,71.25
2019-01-26T03:03:44.952Z,71.37
2019-01-26T03:04:50.181Z,79.15
2019-01-26T03:05:55.082Z,74.50
2019-01-26T03:07:00.293Z,77.65
2019-01-26T03:08:05.478Z,77.70
2019-01-26T03:09:10.675Z,83.55
2019-01-26T03:10:17.525Z,70.55
2019-01-26T03:11:22.847Z,76.95
2019-01-26T03:12:27.748Z,75.57
2019-01-26T03:13:32.702Z,72.10
2019-01-26T03:14:38.210Z,71.80
2019-01-26T03:15:43.208Z,70.10
2019-01-26T03:16:48.115Z,75.50
2019-01-26T03:17:53.277Z,79.03
2019-01-26T03:18:58.504Z,66.22
2019-01-26T03:20:03.738Z,80.45
2019-01-26T03:21:09.016Z,70.65
2019-01-26T03:22:14.022Z,64.60
2019-01-26T03:23:19.014Z,76.65
2019-01-26T03:24:23.900Z,67.03
2019-01-26T03:25:28.819Z,66.35
2019-01-26T03:26:33.776Z,66.50
2019-01-26T03:27:38.801Z,68.05
2019-01-26T03:28:43.726Z,71.92
2019-01-26T03:29:48.636Z,74.20
2019-01-26T03:30:53.631Z,67.55
2019-01-26T03:31:58.586Z,72.72
2019-01-26T03:33:03.449Z,64.35
2019-01-26T03:34:08.503Z,67.97
2019-01-26T03:35:13.502Z,77.05
2019-01-26T03:36:18.448Z,74.20
2019-01-26T03:37:23.347Z,73.02
2019-01-26T03:38:28.923Z,79.50
2019-01-26T03:39:33.820Z,76.20
2019-01-26T03:40:38.709Z,64.77
2019-01-26T03:41:43.720Z,69.40
2019-01-26T03:42:48.912Z,68.20
2019-01-26T03:43:54.501Z,67.92
2019-01-26T03:44:59.388Z,78.87
2019-01-26T03:46:04.692Z,66.70
2019-01-26T03:47:13.747Z,71.92
2019-01-26T03:48:16.534Z,76.53
2019-01-26T03:49:22.125Z,82.22
2019-01-26T03:50:27.102Z,75.97
2019-01-26T03:51:32.331Z,68.65
2019-01-26T03:52:37.271Z,75.12
2019-01-26T03:53:45.864Z,71.67
2019-01-26T03:54:51.033Z,63.17
2019-01-26T03:55:56.393Z,73.62
2019-01-26T03:57:01.364Z,65.52
2019-01-26T03:58:06.345Z,76.20
2019-01-26T03:59:12.354Z,72.55
2019-01-26T04:00:19.797Z,67.85
2019-01-26T04:01:25.050Z,64.62
2019-01-26T04:02:30.404Z,69.67
2019-01-26T04:03:35.388Z,69.37
2019-01-26T04:04:40.446Z,74.58
2019-01-26T04:05:45.342Z,72.75
2019-01-26T04:06:50.254Z,72.85
2019-01-26T04:07:55.223Z,68.78
2019-01-26T04:09:00.187Z,64.35
2019-01-26T04:10:05.981Z,71.80
2019-01-26T04:11:10.959Z,63.08
2019-01-26T04:12:15.930Z,65.17
2019-01-26T04:13:21.200Z,76.55
2019-01-26T04:14:26.267Z,59.13
2019-01-26T04:15:31.240Z,84.75
2019-01-26T04:16:36.914Z,69.30
2019-01-26T04:17:42.189Z,78.80
2019-01-26T04:18:47.167Z,72.53
2019-01-26T04:19:52.406Z,75.78
2019-01-26T04:20:57.380Z,79.35
2019-01-26T04:22:02.284Z,84.17
2019-01-26T04:23:07.246Z,73.17
2019-01-26T04:24:12.232Z,68.05
2019-01-26T04:25:17.659Z,81.40
2019-01-26T04:26:22.949Z,86.87
2019-01-26T04:27:27.866Z,66.57
2019-01-26T04:28:32.777Z,83.22
2019-01-26T04:29:37.758Z,80.72
2019-01-26T04:30:42.932Z,73.67
2019-01-26T04:31:47.912Z,77.30
2019-01-26T04:32:53.295Z,71.02
2019-01-26T04:33:58.475Z,75.87
2019-01-26T04:35:03.850Z,81.75
2019-01-26T04:36:09.022Z,86.28
2019-01-26T04:37:14.338Z,76.53
2019-01-26T04:38:19.221Z,95.05
2019-01-26T04:39:24.409Z,80.20
2019-01-26T04:40:29.303Z,90.83
2019-01-26T04:41:34.279Z,77.75
2019-01-26T04:42:39.269Z,86.53
2019-01-26T04:43:44.557Z,72.32
2019-01-26T04:44:49.540Z,85.77
2019-01-26T04:45:54.553Z,78.78
2019-01-26T04:46:59.568Z,87.30
2019-01-26T04:48:05.640Z,89.90
2019-01-26T04:49:10.833Z,79.05
2019-01-26T04:50:16.924Z,72.05
2019-01-26T04:51:21.989Z,80.85
2019-01-26T04:52:27.657Z,79.82
2019-01-26T04:53:32.944Z,88.00
2019-01-26T04:54:38.159Z,69.85
2019-01-26T04:55:43.422Z,86.78
2019-01-26T04:56:48.418Z,99.83
2019-01-26T04:57:53.358Z,80.53
2019-01-26T04:58:58.376Z,85.72
2019-01-26T05:00:03.366Z,79.45
2019-01-26T05:01:09.160Z,96.70
2019-01-26T05:02:14.368Z,81.05
2019-01-26T05:03:19.486Z,90.28
2019-01-26T05:04:24.427Z,94.75
2019-01-26T05:05:29.402Z,88.07
2019-01-26T05:06:34.289Z,78.90
2019-01-26T05:07:39.546Z,83.22
2019-01-26T05:08:44.736Z,77.05
2019-01-26T05:09:50.029Z,84.15
2019-01-26T05:10:54.923Z,75.65
2019-01-26T05:11:59.816Z,84.05
2019-01-26T05:13:04.777Z,79.82
2019-01-26T05:14:09.727Z,76.07
2019-01-26T05:15:15.358Z,84.30
2019-01-26T05:16:20.324Z,76.90
2019-01-26T05:17:25.221Z,89.22
2019-01-26T05:18:30.138Z,82.10
2019-01-26T05:19:35.126Z,92.37
2019-01-26T05:20:40.027Z,94.42
2019-01-26T05:21:44.933Z,77.30
2019-01-26T05:22:49.924Z,80.62
2019-01-26T05:23:55.207Z,86.70
2019-01-26T05:25:00.350Z,85.77
2019-01-26T05:26:05.820Z,68.55
2019-01-26T05:27:10.827Z,87.10
2019-01-26T05:28:15.799Z,75.03
2019-01-26T05:29:20.876Z,72.67
2019-01-26T05:30:29.979Z,72.00
2019-01-26T05:31:34.958Z,93.35
2019-01-26T05:32:39.892Z,77.75
2019-01-26T05:33:45.141Z,73.55
2019-01-26T05:34:50.038Z,83.30
2019-01-26T05:35:54.969Z,80.65
2019-01-26T05:36:59.884Z,78.35
2019-01-26T05:38:05.273Z,71.20
2019-01-26T05:39:10.212Z,73.20
2019-01-26T05:40:16.144Z,90.25
2019-01-26T05:41:21.110Z,70.52
2019-01-26T05:42:26.089Z,90.32
2019-01-26T05:43:30.978Z,68.78
2019-01-26T05:44:35.901Z,90.22
2019-01-26T05:45:40.873Z,76.07
2019-01-26T05:46:46.172Z,79.58
2019-01-26T05:47:51.351Z,81.80
2019-01-26T05:48:56.259Z,77.72
2019-01-26T05:50:01.222Z,80.05
2019-01-26T05:51:06.247Z,89.60
2019-01-26T05:52:11.232Z,67.92
2019-01-26T05:53:16.211Z,73.52
2019-01-26T05:54:21.181Z,72.45
2019-01-26T05:55:26.424Z,79.90
2019-01-26T05:56:31.730Z,72.58
2019-01-26T05:57:36.757Z,76.00
2019-01-26T05:58:41.951Z,71.60
2019-01-26T05:59:46.870Z,71.17
2019-01-26T06:00:51.769Z,90.03
2019-01-26T06:01:56.855Z,72.12
2019-01-26T06:03:01.854Z,78.22
2019-01-26T06:04:08.641Z,73.78
2019-01-26T06:05:13.797Z,76.02
2019-01-26T06:06:18.729Z,73.67
2019-01-26T06:07:24.045Z,68.07
2019-01-26T06:08:29.119Z,83.17
2019-01-26T06:09:34.357Z,85.28
2019-01-26T06:10:39.507Z,76.80
2019-01-26T06:11:44.951Z,75.78
2019-01-26T06:12:50.137Z,74.60
2019-01-26T06:13:55.044Z,88.70
2019-01-26T06:15:00.333Z,66.67
2019-01-26T06:16:05.847Z,77.27
2019-01-26T06:17:10.760Z,76.25
2019-01-26T06:18:17.073Z,72.82
2019-01-26T06:19:22.117Z,75.55
2019-01-26T06:20:27.569Z,94.83
2019-01-26T06:21:33.053Z,68.65
2019-01-26T06:22:38.286Z,79.70
2019-01-26T06:23:43.463Z,76.10
2019-01-26T06:24:48.424Z,73.78
2019-01-26T06:25:53.407Z,74.70
2019-01-26T06:26:58.405Z,71.55
2019-01-26T06:28:03.706Z,69.15
2019-01-26T06:29:08.635Z,72.80
2019-01-26T06:30:19.261Z,80.25
2019-01-26T06:31:24.170Z,71.72
2019-01-26T06:32:29.152Z,74.37
2019-01-26T06:33:34.149Z,68.95
2019-01-26T06:34:39.306Z,66.57
2019-01-26T06:35:44.594Z,77.80
2019-01-26T06:36:49.492Z,76.57
2019-01-26T06:37:54.675Z,64.27
2019-01-26T06:38:59.600Z,68.07
2019-01-26T06:40:06.029Z,63.38
2019-01-26T06:41:11.042Z,65.50
2019-01-26T06:42:15.948Z,80.30
2019-01-26T06:43:20.838Z,78.57
2019-01-26T06:44:25.756Z,70.00
2019-01-26T06:45:30.842Z,68.15
2019-01-26T06:46:35.795Z,68.83
2019-01-26T06:47:40.765Z,62.67
2019-01-26T06:48:47.911Z,68.92
2019-01-26T06:49:52.852Z,74.25
2019-01-26T06:50:57.742Z,64.45
2019-01-26T06:52:02.734Z,70.57
2019-01-26T06:53:07.640Z,68.37
2019-01-26T06:54:12.516Z,66.70
2019-01-26T06:55:17.838Z,65.78
2019-01-26T06:56:23.135Z,76.77
2019-01-26T06:57:28.069Z,76.75
2019-01-26T06:58:33.166Z,62.40
2019-01-26T06:59:38.043Z,59.67
2019-01-26T07:00:42.960Z,63.13
2019-01-26T07:01:47.975Z,64.75
2019-01-26T07:02:52.958Z,59.15
2019-01-26T07:03:58.219Z,66.35
2019-01-26T07:05:35.793Z,65.37
2019-01-26T07:06:47.622Z,65.87
2019-01-26T07:07:52.958Z,59.77
2019-01-26T07:08:58.195Z,57.70
2019-01-26T07:10:04.215Z,73.15
2019-01-26T07:11:09.250Z,63.65
2019-01-26T07:12:14.547Z,66.92
2019-01-26T07:13:19.675Z,79.22
2019-01-26T07:14:24.887Z,65.47
2019-01-26T07:15:30.264Z,54.95
2019-01-26T07:16:35.273Z,73.90
2019-01-26T07:17:40.470Z,62.48
2019-01-26T07:18:45.734Z,64.87
2019-01-26T07:19:50.964Z,60.92
2019-01-26T07:20:59.280Z,54.90
2019-01-26T07:22:04.516Z,58.83
2019-01-26T07:23:09.627Z,61.75
2019-01-26T07:24:14.560Z,56.92
2019-01-26T07:25:19.906Z,68.17
2019-01-26T07:26:24.909Z,62.93
2019-01-26T07:27:29.884Z,64.35
2019-01-26T07:28:34.777Z,69.15
2019-01-26T07:29:39.757Z,61.98
2019-01-26T07:30:44.942Z,62.88
2019-01-26T07:31:49.854Z,73.42
2019-01-26T07:32:55.841Z,61.20
2019-01-26T07:34:00.752Z,57.17
2019-01-26T07:35:06.407Z,61.10
2019-01-26T07:36:11.595Z,59.77
2019-01-26T07:37:17.741Z,61.42
2019-01-26T07:38:23.291Z,64.20
2019-01-26T07:39:28.893Z,69.58
2019-01-26T07:40:34.331Z,61.77
2019-01-26T07:41:39.571Z,64.00
2019-01-26T07:42:45.066Z,57.78
2019-01-26T07:43:50.056Z,60.28
2019-01-26T07:44:55.167Z,61.35
2019-01-26T07:46:00.653Z,60.70
2019-01-26T07:47:05.735Z,59.90
2019-01-26T07:48:16.783Z,59.18
2019-01-26T07:49:18.107Z,63.95
2019-01-26T07:50:23.485Z,62.75
2019-01-26T07:51:29.092Z,56.20
2019-01-26T07:52:34.313Z,67.97
2019-01-26T07:53:39.304Z,54.67
2019-01-26T07:54:44.267Z,59.48
2019-01-26T07:55:49.324Z,62.95
2019-01-26T07:56:54.305Z,67.25
2019-01-26T07:57:59.355Z,61.13
2019-01-26T07:59:04.291Z,67.90
2019-01-26T08:00:16.443Z,65.25
2019-01-26T08:01:21.423Z,67.53
2019-01-26T08:02:26.610Z,63.92
2019-01-26T08:03:31.523Z,63.83
2019-01-26T08:04:36.523Z,63.05
2019-01-26T08:05:41.495Z,64.47
2019-01-26T08:06:46.445Z,60.50
2019-01-26T08:07:51.494Z,65.35
2019-01-26T08:08:57.908Z,71.07
2019-01-26T08:10:03.227Z,76.55
2019-01-26T08:11:08.451Z,66.95
2019-01-26T08:12:13.358Z,70.10
2019-01-26T08:13:18.279Z,65.10
2019-01-26T08:14:23.564Z,61.05
2019-01-26T08:15:34.613Z,61.02
2019-01-26T08:16:39.543Z,70.00
2019-01-26T08:17:44.494Z,79.27
2019-01-26T08:18:49.435Z,61.65
2019-01-26T08:19:54.691Z,60.65
2019-01-26T08:20:59.703Z,59.48
2019-01-26T08:22:05.069Z,70.12
2019-01-26T08:23:10.576Z,60.78
2019-01-26T08:24:16.127Z,52.62
2019-01-26T08:25:21.558Z,56.68
2019-01-26T08:26:26.592Z,64.12
2019-01-26T08:27:31.524Z,48.68
2019-01-26T08:28:36.528Z,54.48
2019-01-26T08:29:41.915Z,60.03
2019-01-26T08:30:47.090Z,55.95
2019-01-26T08:31:52.049Z,59.67
2019-01-26T08:32:57.007Z,62.85
2019-01-26T08:34:02.243Z,53.52
2019-01-26T08:35:07.643Z,54.80
2019-01-26T08:36:13.023Z,61.83
2019-01-26T08:37:17.945Z,59.45
2019-01-26T08:38:23.024Z,57.85
2019-01-26T08:39:27.969Z,56.15
2019-01-26T08:40:32.899Z,53.23
2019-01-26T08:41:37.841Z,60.65
2019-01-26T08:42:43.429Z,53.02
2019-01-26T08:43:48.328Z,53.20
2019-01-26T08:44:53.308Z,48.00
2019-01-26T08:45:58.239Z,61.37
2019-01-26T08:47:03.477Z,59.42
2019-01-26T08:48:08.578Z,45.88
2019-01-26T08:49:13.546Z,48.38
2019-01-26T08:50:20.967Z,45.55
2019-01-26T08:51:25.873Z,48.38
2019-01-26T08:52:31.181Z,59.80
2019-01-26T08:53:35.994Z,55.35
2019-01-26T08:54:40.919Z,44.50
2019-01-26T08:55:45.863Z,47.15
2019-01-26T08:56:51.151Z,45.90
2019-01-26T08:57:56.161Z,55.28
2019-01-26T08:59:01.228Z,46.25
2019-01-26T09:00:09.412Z,47.90
2019-01-26T09:01:14.385Z,41.58
2019-01-26T09:02:38.686Z,41.45
2019-01-26T09:03:58.297Z,44.48
2019-01-26T09:05:03.261Z,44.73
2019-01-26T09:06:30.499Z,44.67
2019-01-26T09:07:35.423Z,46.28
2019-01-26T09:08:41.254Z,39.55
2019-01-26T09:09:46.181Z,46.75
2019-01-26T09:10:51.526Z,41.33
2019-01-26T09:11:57.500Z,39.20
2019-01-26T09:13:02.518Z,40.20
2019-01-26T09:14:07.488Z,40.50
2019-01-26T09:15:13.377Z,37.55
2019-01-26T09:16:18.387Z,38.23
2019-01-26T09:17:23.570Z,42.10
2019-01-26T09:18:28.643Z,43.68
2019-01-26T09:19:33.624Z,37.90
2019-01-26T09:20:39.069Z,40.63
2019-01-26T09:21:45.733Z,40.23
2019-01-26T09:22:51.125Z,41.02
2019-01-26T09:23:56.053Z,38.73
2019-01-26T09:25:00.954Z,48.25
2019-01-26T09:26:06.312Z,37.33
2019-01-26T09:27:11.383Z,32.88
2019-01-26T09:28:16.459Z,40.70
2019-01-26T09:29:21.674Z,40.20
2019-01-26T09:30:26.666Z,36.75
2019-01-26T09:31:31.879Z,37.10
2019-01-26T09:32:36.922Z,37.10
2019-01-26T09:33:42.473Z,37.35
2019-01-26T09:34:48.116Z,37.08
2019-01-26T09:35:53.158Z,43.13
2019-01-26T09:36:58.201Z,37.75
2019-01-26T09:38:03.284Z,41.40
2019-01-26T09:39:10.364Z,40.35
2019-01-26T09:40:16.306Z,41.15
2019-01-26T09:41:21.243Z,36.55
2019-01-26T09:42:38.460Z,39.13
2019-01-26T09:43:43.546Z,33.15
2019-01-26T09:44:48.646Z,39.95
2019-01-26T09:45:53.638Z,39.53
2019-01-26T09:46:58.965Z,37.85
2019-01-26T09:48:04.097Z,35.23
2019-01-26T09:49:09.159Z,33.95
2019-01-26T09:50:15.202Z,37.88
2019-01-26T09:51:20.539Z,39.05
2019-01-26T09:52:25.536Z,41.42
2019-01-26T09:53:30.618Z,32.15
2019-01-26T09:54:35.561Z,35.68
2019-01-26T09:55:40.480Z,37.80
2019-01-26T09:56:45.385Z,33.28
2019-01-26T09:57:50.978Z,39.00
2019-01-26T09:58:56.386Z,34.70
2019-01-26T10:00:01.321Z,37.23
2019-01-26T10:01:07.257Z,34.33
2019-01-26T10:02:12.348Z,31.60
2019-01-26T10:03:17.680Z,34.63
2019-01-26T10:04:22.709Z,34.58
2019-01-26T10:05:28.103Z,35.48
2019-01-26T10:06:33.173Z,39.98
2019-01-26T10:07:38.151Z,33.73
2019-01-26T10:08:44.076Z,39.05
2019-01-26T10:09:49.829Z,32.58
2019-01-26T10:10:55.385Z,35.73
2019-01-26T10:12:00.314Z,31.82
2019-01-26T10:13:05.297Z,36.88
2019-01-26T10:14:11.411Z,31.97
2019-01-26T10:15:16.709Z,33.58
2019-01-26T10:16:22.018Z,35.83
2019-01-26T10:17:27.019Z,41.58
2019-01-26T10:18:32.042Z,31.20
2019-01-26T10:19:37.117Z,32.60
2019-01-26T10:20:42.400Z,30.60
2019-01-26T10:21:47.709Z,31.07
2019-01-26T10:22:52.730Z,28.95
2019-01-26T10:23:57.644Z,32.38
2019-01-26T10:25:02.666Z,31.52
2019-01-26T10:26:08.162Z,32.03
2019-01-26T10:27:13.337Z,33.00
2019-01-26T10:28:18.603Z,29.98
2019-01-26T10:29:23.798Z,34.63
2019-01-26T10:30:34.625Z,32.28
2019-01-26T10:31:40.061Z,29.67
2019-01-26T10:32:45.605Z,28.90
2019-01-26T10:33:50.653Z,37.78
2019-01-26T10:34:55.590Z,33.53
2019-01-26T10:36:19.778Z,32.23
2019-01-26T10:37:27.352Z,32.00
2019-01-26T10:38:34.167Z,29.67
2019-01-26T10:39:39.148Z,36.65
2019-01-26T10:41:11.923Z,31.23
2019-01-26T10:42:28.358Z,33.02
2019-01-26T10:43:35.664Z,27.07
2019-01-26T10:44:41.220Z,28.32
2019-01-26T10:45:47.138Z,27.93
2019-01-26T10:46:52.117Z,32.88
2019-01-26T10:47:57.200Z,29.20
2019-01-26T10:49:02.214Z,31.70
2019-01-26T10:50:07.616Z,29.67
2019-01-26T10:51:12.632Z,33.28
2019-01-26T10:52:17.628Z,33.05
2019-01-26T10:53:23.011Z,31.73
2019-01-26T10:54:28.005Z,32.08
2019-01-26T10:55:33.009Z,31.17
2019-01-26T10:56:38.000Z,31.52
2019-01-26T10:57:43.253Z,26.80
2019-01-26T10:58:48.182Z,36.23
2019-01-26T10:59:53.640Z,26.10
2019-01-26T11:00:59.223Z,27.15
2019-01-26T11:02:04.458Z,28.47
2019-01-26T11:03:09.904Z,29.90
2019-01-26T11:04:14.915Z,30.32
2019-01-26T11:05:20.040Z,37.30
2019-01-26T11:06:25.146Z,31.85
2019-01-26T11:07:30.552Z,28.73
2019-01-26T11:08:35.771Z,33.58
2019-01-26T11:09:40.948Z,29.25
2019-01-26T11:10:46.031Z,23.57
2019-01-26T11:11:51.062Z,26.10
2019-01-26T11:12:56.100Z,31.02
2019-01-26T11:14:01.298Z,30.35
2019-01-26T11:15:06.885Z,28.55
2019-01-26T11:16:13.037Z,32.83
2019-01-26T11:17:18.031Z,25.23
2019-01-26T11:18:22.960Z,31.12
2019-01-26T11:19:28.026Z,25.88
2019-01-26T11:20:33.012Z,30.72
2019-01-26T11:21:37.939Z,24.77
2019-01-26T11:22:43.416Z,26.55
2019-01-26T11:23:48.347Z,29.63
2019-01-26T11:24:53.251Z,30.65
2019-01-26T11:25:58.415Z,31.42
2019-01-26T11:27:03.672Z,31.62
2019-01-26T11:28:08.673Z,27.82
2019-01-26T11:29:14.185Z,25.40
2019-01-26T11:30:20.454Z,28.75
2019-01-26T11:31:25.997Z,27.32
2019-01-26T11:32:31.386Z,30.72
2019-01-26T11:33:36.779Z,26.30
2019-01-26T11:34:41.866Z,29.37
2019-01-26T11:35:47.157Z,29.95
2019-01-26T11:36:52.368Z,29.98
2019-01-26T11:38:00.515Z,26.82
2019-01-26T11:39:09.522Z,30.75
2019-01-26T11:40:20.844Z,28.17
2019-01-26T11:41:25.808Z,29.80
2019-01-26T11:42:31.121Z,31.55
2019-01-26T11:43:39.560Z,29.82
2019-01-26T11:45:03.499Z,28.35
2019-01-26T11:46:18.707Z,33.30
2019-01-26T11:47:24.203Z,27.25
2019-01-26T11:48:33.159Z,28.17
2019-01-26T11:49:42.101Z,30.62
2019-01-26T11:50:50.212Z,29.77
2019-01-26T11:52:12.865Z,33.88
2019-01-26T11:53:19.676Z,30.52
2019-01-26T11:54:24.629Z,33.85
2019-01-26T11:55:41.463Z,29.10
2019-01-26T11:56:48.850Z,30.17
2019-01-26T11:57:54.614Z,30.40
2019-01-26T11:58:59.693Z,30.55
2019-01-26T12:00:31.875Z,30.12
2019-01-26T12:01:45.833Z,30.70
2019-01-26T12:03:19.552Z,31.90
2019-01-26T12:04:46.608Z,31.05
2019-01-26T12:05:56.132Z,32.70
2019-01-26T12:07:06.045Z,26.50
2019-01-26T12:08:11.263Z,28.52
2019-01-26T12:09:18.344Z,35.63
2019-01-26T12:10:23.248Z,32.40
2019-01-26T12:11:28.255Z,31.77
2019-01-26T12:12:33.843Z,30.85
2019-01-26T12:13:40.499Z,36.45
2019-01-26T12:14:45.839Z,26.90
2019-01-26T12:15:50.982Z,30.48
2019-01-26T12:16:55.934Z,30.70
2019-01-26T12:18:02.084Z,27.30
2019-01-26T12:19:08.195Z,26.25
2019-01-26T12:20:15.286Z,26.12
2019-01-26T12:21:20.491Z,31.57
2019-01-26T12:22:25.481Z,25.88
2019-01-26T12:23:30.411Z,22.17
2019-01-26T12:24:35.426Z,32.67
2019-01-26T12:25:40.441Z,28.52
2019-01-26T12:26:46.064Z,26.60
2019-01-26T12:27:51.462Z,24.60
2019-01-26T12:28:57.122Z,22.58
2019-01-26T12:30:04.270Z,25.23
2019-01-26T12:31:09.442Z,22.07
2019-01-26T12:32:14.420Z,21.87
2019-01-26T12:33:19.381Z,22.05
2019-01-26T12:34:24.418Z,26.25
2019-01-26T12:35:29.843Z,27.87
2019-01-26T12:36:34.978Z,26.93
2019-01-26T12:37:40.142Z,26.25
2019-01-26T12:38:45.086Z,24.37
2019-01-26T12:39:50.027Z,21.85
2019-01-26T12:40:55.469Z,31.35
2019-01-26T12:42:00.505Z,28.98
2019-01-26T12:43:05.780Z,28.52
2019-01-26T12:44:10.714Z,25.65
2019-01-26T12:45:18.642Z,21.62
2019-01-26T12:46:24.344Z,24.35
2019-01-26T12:47:29.752Z,23.07
2019-01-26T12:48:34.819Z,22.70
2019-01-26T12:49:39.729Z,23.95
2019-01-26T12:50:44.835Z,24.45
2019-01-26T12:51:49.943Z,24.20
2019-01-26T12:52:55.388Z,26.35
2019-01-26T12:54:00.468Z,22.95
2019-01-26T12:55:06.218Z,25.55
2019-01-26T12:56:11.680Z,19.92
2019-01-26T12:57:16.724Z,21.40
2019-01-26T12:58:21.799Z,23.77
2019-01-26T12:59:26.835Z,23.75
2019-01-26T13:00:31.905Z,23.70
2019-01-26T13:01:37.317Z,22.13
2019-01-26T13:02:42.492Z,24.10
2019-01-26T13:03:48.003Z,23.27
2019-01-26T13:04:53.061Z,25.17
2019-01-26T13:05:58.199Z,24.02
2019-01-26T13:07:03.581Z,23.55
2019-01-26T13:08:10.015Z,24.60
2019-01-26T13:09:15.520Z,28.87
2019-01-26T13:10:24.022Z,33.25
2019-01-26T13:11:30.405Z,26.20
2019-01-26T13:12:35.452Z,28.92
2019-01-26T13:13:40.625Z,23.42
2019-01-26T13:14:45.647Z,20.90
2019-01-26T13:15:50.996Z,25.50
2019-01-26T13:16:56.403Z,22.70
2019-01-26T13:18:01.464Z,23.85
2019-01-26T13:19:06.743Z,26.20
2019-01-26T13:20:13.413Z,22.25
2019-01-26T13:21:19.569Z,23.47
2019-01-26T13:22:24.806Z,28.23
2019-01-26T13:23:30.070Z,18.42
2019-01-26T13:24:35.723Z,21.30
2019-01-26T13:25:40.670Z,24.92
2019-01-26T13:26:45.676Z,22.80
2019-01-26T13:27:50.597Z,19.25
2019-01-26T13:28:56.083Z,22.05
2019-01-26T13:30:01.151Z,19.15
2019-01-26T13:31:06.527Z,22.32
2019-01-26T13:32:11.601Z,17.37
2019-01-26T13:33:17.918Z,18.87
2019-01-26T13:34:23.635Z,15.38
2019-01-26T13:35:28.689Z,17.32
2019-01-26T13:36:33.932Z,15.93
2019-01-26T13:37:38.873Z,14.83
2019-01-26T13:38:43.851Z,14.05
2019-01-26T13:39:48.802Z,24.57
2019-01-26T13:40:53.781Z,16.50
2019-01-26T13:41:58.817Z,13.08
2019-01-26T13:43:03.902Z,16.52
2019-01-26T13:44:09.719Z,17.87
2019-01-26T13:45:15.401Z,17.23
2019-01-26T13:46:20.558Z,16.02
2019-01-26T13:47:25.564Z,15.98
2019-01-26T13:48:30.496Z,14.95
2019-01-26T13:49:36.154Z,14.87
2019-01-26T13:50:41.286Z,19.05
2019-01-26T13:51:46.250Z,15.18
2019-01-26T13:52:51.417Z,10.88
2019-01-26T13:53:56.492Z,16.93
2019-01-26T13:55:01.398Z,14.35
2019-01-26T13:56:07.068Z,12.47
2019-01-26T13:57:12.659Z,14.73
2019-01-26T13:58:17.774Z,14.60
2019-01-26T13:59:22.756Z,11.63
2019-01-26T14:00:29.516Z,14.78
2019-01-26T14:01:34.429Z,14.45
2019-01-26T14:02:39.310Z,10.63
2019-01-26T14:03:44.315Z,13.83
2019-01-26T14:04:49.713Z,11.88
2019-01-26T14:05:54.709Z,13.72
2019-01-26T14:06:59.700Z,13.20